sensor_id;sensor_type;location;lat;lon;timestamp;temperature;humidity
31991;DHT22;18508;49.386;8.370;2022-09-03T00:00:53;19.10;1.00
31991;DHT22;18508;49.386;8.370;2022-09-03T00:03:26;19.10;1.00
31991;DHT22;18508;49.386;8.370;2022-09-03T00:06:07;19.20;1.00
31991;DHT22;18508;49.386;8.370;2022-09-03T00:08:41;19.20;1.00
31991;DHT22;18508;49.386;8.370;2022-09-03T00:11:15;19.20;1.00
31991;DHT22;18508;49.386;8.370;2022-09-03T00:13:50;19.20;1.00
31991;DHT22;18508;49.386;8.370;2022-09-03T00:16:23;19.20;1.00
31991;DHT22;18508;49.386;8.370;2022-09-03T00:18:57;19.00;99.90
31991;DHT22;18508;49.386;8.370;2022-09-03T00:21:34;18.80;99.90
31991;DHT22;18508;49.386;8.370;2022-09-03T00:24:06;18.70;1.00
31991;DHT22;18508;49.386;8.370;2022-09-03T00:26:43;18.60;1.00
31991;DHT22;18508;49.386;8.370;2022-09-03T00:29:14;18.60;1.00
31991;DHT22;18508;49.386;8.370;2022-09-03T00:31:47;18.60;1.00
31991;DHT22;18508;49.386;8.370;2022-09-03T00:34:23;18.60;1.00
31991;DHT22;18508;49.386;8.370;2022-09-03T00:36:52;18.50;40.10
31991;DHT22;18508;49.386;8.370;2022-09-03T00:39:23;18.50;67.30
31991;DHT22;18508;49.386;8.370;2022-09-03T00:42:06;18.40;1.00
31991;DHT22;18508;49.386;8.370;2022-09-03T00:45:24;18.50;99.90
31991;DHT22;18508;49.386;8.370;2022-09-03T00:48:06;18.50;99.90
31991;DHT22;18508;49.386;8.370;2022-09-03T00:50:47;18.50;99.90
31991;DHT22;18508;49.386;8.370;2022-09-03T00:53:27;18.60;99.90
31991;DHT22;18508;49.386;8.370;2022-09-03T00:56:07;18.60;64.00
31991;DHT22;18508;49.386;8.370;2022-09-03T00:58:50;18.70;26.60
31991;DHT22;18508;49.386;8.370;2022-09-03T01:01:27;18.70;40.10
31991;DHT22;18508;49.386;8.370;2022-09-03T01:04:07;18.70;2.80
31991;DHT22;18508;49.386;8.370;2022-09-03T01:06:49;18.70;6.20
31991;DHT22;18508;49.386;8.370;2022-09-03T01:09:35;18.70;1.00
31991;DHT22;18508;49.386;8.370;2022-09-03T01:12:14;18.70;1.00
31991;DHT22;18508;49.386;8.370;2022-09-03T01:14:56;18.80;10.40
31991;DHT22;18508;49.386;8.370;2022-09-03T01:17:35;18.80;1.00
31991;DHT22;18508;49.386;8.370;2022-09-03T01:20:36;18.80;1.00
31991;DHT22;18508;49.386;8.370;2022-09-03T01:23:42;18.70;1.00
31991;DHT22;18508;49.386;8.370;2022-09-03T01:26:44;18.70;18.10
31991;DHT22;18508;49.386;8.370;2022-09-03T01:29:55;18.70;12.40
31991;DHT22;18508;49.386;8.370;2022-09-03T01:32:41;18.70;6.20
31991;DHT22;18508;49.386;8.370;2022-09-03T01:35:26;18.70;5.40
31991;DHT22;18508;49.386;8.370;2022-09-03T01:38:15;18.70;16.00
31991;DHT22;18508;49.386;8.370;2022-09-03T01:40:56;18.70;27.80
31991;DHT22;18508;49.386;8.370;2022-09-03T01:43:59;18.70;15.10
31991;DHT22;18508;49.386;8.370;2022-09-03T01:46:38;18.60;10.40
31991;DHT22;18508;49.386;8.370;2022-09-03T01:49:16;18.60;13.10
31991;DHT22;18508;49.386;8.370;2022-09-03T01:51:55;18.60;12.10
31991;DHT22;18508;49.386;8.370;2022-09-03T01:54:45;18.60;12.20
31991;DHT22;18508;49.386;8.370;2022-09-03T01:57:29;18.60;5.60
31991;DHT22;18508;49.386;8.370;2022-09-03T02:00:16;18.50;27.60
31991;DHT22;18508;49.386;8.370;2022-09-03T02:02:49;18.50;20.70
31991;DHT22;18508;49.386;8.370;2022-09-03T02:05:20;18.50;14.50
31991;DHT22;18508;49.386;8.370;2022-09-03T02:07:56;18.50;11.70
31991;DHT22;18508;49.386;8.370;2022-09-03T02:10:26;18.50;2.50
31991;DHT22;18508;49.386;8.370;2022-09-03T02:13:03;18.50;9.60
31991;DHT22;18508;49.386;8.370;2022-09-03T02:15:32;18.50;15.60
31991;DHT22;18508;49.386;8.370;2022-09-03T02:18:06;18.40;9.20
31991;DHT22;18508;49.386;8.370;2022-09-03T02:20:38;18.30;99.90
31991;DHT22;18508;49.386;8.370;2022-09-03T02:23:08;18.20;1.00
31991;DHT22;18508;49.386;8.370;2022-09-03T02:25:39;18.20;1.00
31991;DHT22;18508;49.386;8.370;2022-09-03T02:28:09;18.10;99.90
31991;DHT22;18508;49.386;8.370;2022-09-03T02:30:43;18.00;99.90
31991;DHT22;18508;49.386;8.370;2022-09-03T02:33:14;17.90;99.90
31991;DHT22;18508;49.386;8.370;2022-09-03T02:35:43;17.90;99.90
31991;DHT22;18508;49.386;8.370;2022-09-03T02:38:14;17.80;1.00
31991;DHT22;18508;49.386;8.370;2022-09-03T02:40:46;17.80;99.90
31991;DHT22;18508;49.386;8.370;2022-09-03T02:43:20;17.70;99.90
31991;DHT22;18508;49.386;8.370;2022-09-03T02:46:02;17.70;1.00
31991;DHT22;18508;49.386;8.370;2022-09-03T02:48:34;17.60;99.90
31991;DHT22;18508;49.386;8.370;2022-09-03T02:51:02;17.50;1.00
31991;DHT22;18508;49.386;8.370;2022-09-03T02:53:40;17.50;99.90
31991;DHT22;18508;49.386;8.370;2022-09-03T02:56:11;17.50;1.00
31991;DHT22;18508;49.386;8.370;2022-09-03T02:58:39;17.50;1.00
31991;DHT22;18508;49.386;8.370;2022-09-03T03:01:18;17.50;99.90
31991;DHT22;18508;49.386;8.370;2022-09-03T03:03:51;17.50;99.90
31991;DHT22;18508;49.386;8.370;2022-09-03T03:06:20;17.50;99.90
31991;DHT22;18508;49.386;8.370;2022-09-03T03:08:51;17.50;99.90
31991;DHT22;18508;49.386;8.370;2022-09-03T03:11:23;17.50;99.90
31991;DHT22;18508;49.386;8.370;2022-09-03T03:13:52;17.50;99.90
31991;DHT22;18508;49.386;8.370;2022-09-03T03:16:24;17.50;99.90
31991;DHT22;18508;49.386;8.370;2022-09-03T03:18:57;17.50;99.90
31991;DHT22;18508;49.386;8.370;2022-09-03T03:21:28;17.50;99.90
31991;DHT22;18508;49.386;8.370;2022-09-03T03:23:56;17.50;99.90
31991;DHT22;18508;49.386;8.370;2022-09-03T03:26:28;17.50;99.90
31991;DHT22;18508;49.386;8.370;2022-09-03T03:28:59;17.60;99.90
31991;DHT22;18508;49.386;8.370;2022-09-03T03:31:31;17.60;99.90
31991;DHT22;18508;49.386;8.370;2022-09-03T03:34:02;17.60;99.90
31991;DHT22;18508;49.386;8.370;2022-09-03T03:36:32;17.60;99.90
31991;DHT22;18508;49.386;8.370;2022-09-03T03:39:01;17.60;99.90
31991;DHT22;18508;49.386;8.370;2022-09-03T03:41:37;17.60;99.90
31991;DHT22;18508;49.386;8.370;2022-09-03T03:44:07;17.60;99.90
31991;DHT22;18508;49.386;8.370;2022-09-03T03:46:39;17.60;99.90
31991;DHT22;18508;49.386;8.370;2022-09-03T03:49:08;17.70;99.90
31991;DHT22;18508;49.386;8.370;2022-09-03T03:51:38;17.70;99.90
31991;DHT22;18508;49.386;8.370;2022-09-03T03:54:07;17.70;99.90
31991;DHT22;18508;49.386;8.370;2022-09-03T03:56:41;17.80;99.90
31991;DHT22;18508;49.386;8.370;2022-09-03T03:59:12;17.70;99.90
31991;DHT22;18508;49.386;8.370;2022-09-03T04:01:41;17.80;99.90
31991;DHT22;18508;49.386;8.370;2022-09-03T04:04:11;17.70;99.90
31991;DHT22;18508;49.386;8.370;2022-09-03T04:06:40;17.80;99.90
31991;DHT22;18508;49.386;8.370;2022-09-03T04:09:12;17.80;99.90
31991;DHT22;18508;49.386;8.370;2022-09-03T04:11:43;17.80;99.90
31991;DHT22;18508;49.386;8.370;2022-09-03T04:14:14;17.80;99.90
31991;DHT22;18508;49.386;8.370;2022-09-03T04:16:45;17.70;1.00
31991;DHT22;18508;49.386;8.370;2022-09-03T04:19:17;17.70;1.00
31991;DHT22;18508;49.386;8.370;2022-09-03T04:21:55;17.70;1.00
31991;DHT22;18508;49.386;8.370;2022-09-03T04:24:25;17.60;99.90
31991;DHT22;18508;49.386;8.370;2022-09-03T04:26:54;17.50;26.50
31991;DHT22;18508;49.386;8.370;2022-09-03T04:29:25;17.50;99.90
31991;DHT22;18508;49.386;8.370;2022-09-03T04:31:56;17.40;99.90
31991;DHT22;18508;49.386;8.370;2022-09-03T04:34:44;17.40;99.90
31991;DHT22;18508;49.386;8.370;2022-09-03T04:37:14;17.30;1.00
31991;DHT22;18508;49.386;8.370;2022-09-03T04:39:46;17.30;99.90
31991;DHT22;18508;49.386;8.370;2022-09-03T04:42:15;17.30;1.00
31991;DHT22;18508;49.386;8.370;2022-09-03T04:44:45;17.20;1.00
31991;DHT22;18508;49.386;8.370;2022-09-03T04:47:13;17.20;99.90
31991;DHT22;18508;49.386;8.370;2022-09-03T04:49:43;17.10;99.90
31991;DHT22;18508;49.386;8.370;2022-09-03T04:52:13;17.10;1.00
31991;DHT22;18508;49.386;8.370;2022-09-03T04:54:43;17.10;1.00
31991;DHT22;18508;49.386;8.370;2022-09-03T04:57:14;17.10;1.00
31991;DHT22;18508;49.386;8.370;2022-09-03T04:59:44;17.10;1.00
31991;DHT22;18508;49.386;8.370;2022-09-03T05:02:12;17.10;99.90
31991;DHT22;18508;49.386;8.370;2022-09-03T05:04:42;17.10;7.90
31991;DHT22;18508;49.386;8.370;2022-09-03T05:07:11;17.10;99.90
31991;DHT22;18508;49.386;8.370;2022-09-03T05:09:46;17.10;99.90
31991;DHT22;18508;49.386;8.370;2022-09-03T05:12:14;17.10;99.90
31991;DHT22;18508;49.386;8.370;2022-09-03T05:14:46;17.10;1.00
31991;DHT22;18508;49.386;8.370;2022-09-03T05:17:17;17.10;99.90
31991;DHT22;18508;49.386;8.370;2022-09-03T05:19:46;17.10;99.90
31991;DHT22;18508;49.386;8.370;2022-09-03T05:22:19;17.10;1.00
31991;DHT22;18508;49.386;8.370;2022-09-03T05:24:49;17.20;99.90
31991;DHT22;18508;49.386;8.370;2022-09-03T05:27:18;17.20;99.90
31991;DHT22;18508;49.386;8.370;2022-09-03T05:29:46;17.20;99.90
31991;DHT22;18508;49.386;8.370;2022-09-03T05:32:18;17.30;99.90
31991;DHT22;18508;49.386;8.370;2022-09-03T05:34:48;17.30;99.90
31991;DHT22;18508;49.386;8.370;2022-09-03T05:37:19;17.40;99.90
31991;DHT22;18508;49.386;8.370;2022-09-03T05:39:48;17.40;99.90
31991;DHT22;18508;49.386;8.370;2022-09-03T05:42:21;17.50;1.00
31991;DHT22;18508;49.386;8.370;2022-09-03T05:44:50;17.60;99.90
31991;DHT22;18508;49.386;8.370;2022-09-03T05:47:18;17.70;1.00
31991;DHT22;18508;49.386;8.370;2022-09-03T05:49:48;17.80;1.00
31991;DHT22;18508;49.386;8.370;2022-09-03T05:52:19;17.90;1.00
31991;DHT22;18508;49.386;8.370;2022-09-03T05:54:50;17.90;1.00
31991;DHT22;18508;49.386;8.370;2022-09-03T05:57:18;18.00;1.00
31991;DHT22;18508;49.386;8.370;2022-09-03T05:59:46;18.00;33.60
31991;DHT22;18508;49.386;8.370;2022-09-03T06:02:15;18.00;1.00
31991;DHT22;18508;49.386;8.370;2022-09-03T06:04:49;18.10;1.00
31991;DHT22;18508;49.386;8.370;2022-09-03T06:07:20;18.00;1.00
31991;DHT22;18508;49.386;8.370;2022-09-03T06:09:52;18.00;1.00
31991;DHT22;18508;49.386;8.370;2022-09-03T06:12:20;17.90;99.90
31991;DHT22;18508;49.386;8.370;2022-09-03T06:14:51;17.80;99.90
31991;DHT22;18508;49.386;8.370;2022-09-03T06:17:21;17.70;99.90
31991;DHT22;18508;49.386;8.370;2022-09-03T06:19:53;17.60;99.90
31991;DHT22;18508;49.386;8.370;2022-09-03T06:22:24;17.50;1.00
31991;DHT22;18508;49.386;8.370;2022-09-03T06:24:55;17.50;1.00
31991;DHT22;18508;49.386;8.370;2022-09-03T06:27:23;17.10;99.90
31991;DHT22;18508;49.386;8.370;2022-09-03T06:29:56;17.10;69.80
31991;DHT22;18508;49.386;8.370;2022-09-03T06:32:25;17.00;99.90
31991;DHT22;18508;49.386;8.370;2022-09-03T06:34:58;16.90;99.90
31991;DHT22;18508;49.386;8.370;2022-09-03T06:37:27;16.90;1.00
31991;DHT22;18508;49.386;8.370;2022-09-03T06:39:55;16.90;52.10
31991;DHT22;18508;49.386;8.370;2022-09-03T06:42:24;16.80;99.90
31991;DHT22;18508;49.386;8.370;2022-09-03T06:44:54;16.90;1.00
31991;DHT22;18508;49.386;8.370;2022-09-03T06:47:23;16.90;99.90
31991;DHT22;18508;49.386;8.370;2022-09-03T06:49:51;16.80;1.00
31991;DHT22;18508;49.386;8.370;2022-09-03T06:52:24;16.90;99.90
31991;DHT22;18508;49.386;8.370;2022-09-03T06:54:54;16.80;99.90
31991;DHT22;18508;49.386;8.370;2022-09-03T06:57:22;16.70;99.90
31991;DHT22;18508;49.386;8.370;2022-09-03T06:59:51;16.70;99.90
31991;DHT22;18508;49.386;8.370;2022-09-03T07:02:20;16.60;99.90
31991;DHT22;18508;49.386;8.370;2022-09-03T07:04:49;16.60;99.90
31991;DHT22;18508;49.386;8.370;2022-09-03T07:07:22;16.60;99.90
31991;DHT22;18508;49.386;8.370;2022-09-03T07:09:50;16.60;99.90
31991;DHT22;18508;49.386;8.370;2022-09-03T07:12:20;16.50;99.90
31991;DHT22;18508;49.386;8.370;2022-09-03T07:14:48;16.60;99.90
31991;DHT22;18508;49.386;8.370;2022-09-03T07:17:19;16.50;99.90
31991;DHT22;18508;49.386;8.370;2022-09-03T07:19:47;16.50;99.90
31991;DHT22;18508;49.386;8.370;2022-09-03T07:24:45;16.30;99.90
31991;DHT22;18508;49.386;8.370;2022-09-03T07:27:14;16.20;99.90
31991;DHT22;18508;49.386;8.370;2022-09-03T07:29:43;16.20;99.90
31991;DHT22;18508;49.386;8.370;2022-09-03T07:32:12;16.00;99.90
31991;DHT22;18508;49.386;8.370;2022-09-03T07:34:43;16.00;99.90
31991;DHT22;18508;49.386;8.370;2022-09-03T07:37:11;16.10;99.90
31991;DHT22;18508;49.386;8.370;2022-09-03T07:39:40;16.10;99.90
31991;DHT22;18508;49.386;8.370;2022-09-03T07:42:09;16.00;99.90
31991;DHT22;18508;49.386;8.370;2022-09-03T07:44:37;16.00;99.90
31991;DHT22;18508;49.386;8.370;2022-09-03T07:47:07;16.00;99.90
31991;DHT22;18508;49.386;8.370;2022-09-03T07:49:35;15.80;99.90
31991;DHT22;18508;49.386;8.370;2022-09-03T07:52:04;15.90;99.90
31991;DHT22;18508;49.386;8.370;2022-09-03T07:54:37;15.90;99.90
31991;DHT22;18508;49.386;8.370;2022-09-03T07:57:06;15.90;99.90
31991;DHT22;18508;49.386;8.370;2022-09-03T07:59:35;15.60;99.90
31991;DHT22;18508;49.386;8.370;2022-09-03T08:02:08;15.80;99.90
31991;DHT22;18508;49.386;8.370;2022-09-03T08:04:36;15.70;99.90
31991;DHT22;18508;49.386;8.370;2022-09-03T08:07:07;15.60;99.90
31991;DHT22;18508;49.386;8.370;2022-09-03T08:09:35;15.60;99.90
31991;DHT22;18508;49.386;8.370;2022-09-03T08:12:06;15.40;99.90
31991;DHT22;18508;49.386;8.370;2022-09-03T08:14:34;15.50;99.90
31991;DHT22;18508;49.386;8.370;2022-09-03T08:17:03;15.60;99.90
31991;DHT22;18508;49.386;8.370;2022-09-03T08:19:36;15.60;99.90
31991;DHT22;18508;49.386;8.370;2022-09-03T08:22:06;15.70;99.90
31991;DHT22;18508;49.386;8.370;2022-09-03T08:24:35;15.80;99.90
31991;DHT22;18508;49.386;8.370;2022-09-03T08:27:04;15.80;99.90
31991;DHT22;18508;49.386;8.370;2022-09-03T08:29:32;15.90;99.90
31991;DHT22;18508;49.386;8.370;2022-09-03T08:32:04;16.10;99.90
31991;DHT22;18508;49.386;8.370;2022-09-03T08:34:32;16.20;99.90
31991;DHT22;18508;49.386;8.370;2022-09-03T08:37:03;16.20;99.90
31991;DHT22;18508;49.386;8.370;2022-09-03T08:39:31;16.20;99.90
31991;DHT22;18508;49.386;8.370;2022-09-03T08:42:15;16.10;99.90
31991;DHT22;18508;49.386;8.370;2022-09-03T08:44:49;16.00;99.90
31991;DHT22;18508;49.386;8.370;2022-09-03T08:47:23;16.00;99.90
31991;DHT22;18508;49.386;8.370;2022-09-03T08:49:56;16.00;99.90
31991;DHT22;18508;49.386;8.370;2022-09-03T08:52:40;16.10;99.90
31991;DHT22;18508;49.386;8.370;2022-09-03T08:55:21;16.20;99.90
31991;DHT22;18508;49.386;8.370;2022-09-03T08:57:54;16.20;99.90
31991;DHT22;18508;49.386;8.370;2022-09-03T09:00:28;16.30;99.90
31991;DHT22;18508;49.386;8.370;2022-09-03T09:06:07;16.60;99.90
31991;DHT22;18508;49.386;8.370;2022-09-03T09:08:46;16.70;99.90
31991;DHT22;18508;49.386;8.370;2022-09-03T09:11:25;17.00;99.90
31991;DHT22;18508;49.386;8.370;2022-09-03T09:13:59;17.20;99.90
31991;DHT22;18508;49.386;8.370;2022-09-03T09:16:35;17.40;99.90
31991;DHT22;18508;49.386;8.370;2022-09-03T09:19:15;17.60;99.90
31991;DHT22;18508;49.386;8.370;2022-09-03T09:21:52;17.90;99.90
31991;DHT22;18508;49.386;8.370;2022-09-03T09:24:25;18.00;99.90
31991;DHT22;18508;49.386;8.370;2022-09-03T09:26:58;18.20;99.90
31991;DHT22;18508;49.386;8.370;2022-09-03T09:29:29;18.50;99.90
31991;DHT22;18508;49.386;8.370;2022-09-03T09:31:59;18.70;99.90
31991;DHT22;18508;49.386;8.370;2022-09-03T09:34:28;18.60;99.90
31991;DHT22;18508;49.386;8.370;2022-09-03T09:37:03;18.90;99.90
31991;DHT22;18508;49.386;8.370;2022-09-03T09:39:34;19.10;99.90
31991;DHT22;18508;49.386;8.370;2022-09-03T09:42:06;19.50;99.90
31991;DHT22;18508;49.386;8.370;2022-09-03T09:44:36;19.40;99.90
31991;DHT22;18508;49.386;8.370;2022-09-03T09:47:06;19.60;99.90
31991;DHT22;18508;49.386;8.370;2022-09-03T09:49:42;19.70;99.90
31991;DHT22;18508;49.386;8.370;2022-09-03T09:52:18;19.80;99.90
31991;DHT22;18508;49.386;8.370;2022-09-03T10:00:19;20.80;99.90
31991;DHT22;18508;49.386;8.370;2022-09-03T10:02:51;20.30;99.90
31991;DHT22;18508;49.386;8.370;2022-09-03T10:05:22;20.00;99.90
31991;DHT22;18508;49.386;8.370;2022-09-03T10:07:55;20.10;99.90
31991;DHT22;18508;49.386;8.370;2022-09-03T10:10:33;20.10;99.90
31991;DHT22;18508;49.386;8.370;2022-09-03T10:13:07;19.90;99.90
31991;DHT22;18508;49.386;8.370;2022-09-03T10:15:47;20.00;99.90
31991;DHT22;18508;49.386;8.370;2022-09-03T10:18:26;20.00;99.90
31991;DHT22;18508;49.386;8.370;2022-09-03T10:21:00;19.70;99.90
31991;DHT22;18508;49.386;8.370;2022-09-03T10:23:41;19.80;99.90
31991;DHT22;18508;49.386;8.370;2022-09-03T10:26:17;20.00;99.90
31991;DHT22;18508;49.386;8.370;2022-09-03T10:29:01;20.10;99.90
31991;DHT22;18508;49.386;8.370;2022-09-03T10:31:40;20.20;99.90
31991;DHT22;18508;49.386;8.370;2022-09-03T10:34:17;19.90;99.90
31991;DHT22;18508;49.386;8.370;2022-09-03T10:36:55;19.90;99.90
31991;DHT22;18508;49.386;8.370;2022-09-03T10:39:37;20.10;99.90
31991;DHT22;18508;49.386;8.370;2022-09-03T10:42:29;20.40;99.90
31991;DHT22;18508;49.386;8.370;2022-09-03T10:45:12;20.80;99.90
31991;DHT22;18508;49.386;8.370;2022-09-03T10:48:04;20.60;99.90
31991;DHT22;18508;49.386;8.370;2022-09-03T10:50:46;20.80;99.90
31991;DHT22;18508;49.386;8.370;2022-09-03T10:56:14;20.80;99.90
31991;DHT22;18508;49.386;8.370;2022-09-03T10:58:57;20.90;99.90
31991;DHT22;18508;49.386;8.370;2022-09-03T11:01:34;21.00;99.90
31991;DHT22;18508;49.386;8.370;2022-09-03T11:04:19;21.00;99.90
31991;DHT22;18508;49.386;8.370;2022-09-03T11:06:53;21.30;99.90
31991;DHT22;18508;49.386;8.370;2022-09-03T11:09:25;21.60;99.90
31991;DHT22;18508;49.386;8.370;2022-09-03T11:11:56;21.80;99.90
31991;DHT22;18508;49.386;8.370;2022-09-03T11:14:34;21.90;99.90
31991;DHT22;18508;49.386;8.370;2022-09-03T11:17:09;22.10;99.90
31991;DHT22;18508;49.386;8.370;2022-09-03T11:19:46;22.20;99.90
31991;DHT22;18508;49.386;8.370;2022-09-03T11:22:16;23.00;99.90
31991;DHT22;18508;49.386;8.370;2022-09-03T11:24:51;23.30;99.60
31991;DHT22;18508;49.386;8.370;2022-09-03T11:27:34;23.30;99.90
31991;DHT22;18508;49.386;8.370;2022-09-03T11:30:05;23.40;97.10
31991;DHT22;18508;49.386;8.370;2022-09-03T11:32:45;23.00;99.90
31991;DHT22;18508;49.386;8.370;2022-09-03T11:35:26;23.20;99.90
31991;DHT22;18508;49.386;8.370;2022-09-03T11:37:59;23.10;87.60
31991;DHT22;18508;49.386;8.370;2022-09-03T11:40:31;23.10;95.10
31991;DHT22;18508;49.386;8.370;2022-09-03T11:43:10;23.50;75.40
31991;DHT22;18508;49.386;8.370;2022-09-03T11:45:41;23.50;80.20
31991;DHT22;18508;49.386;8.370;2022-09-03T11:48:18;23.80;76.20
31991;DHT22;18508;49.386;8.370;2022-09-03T11:50:54;24.30;74.70
31991;DHT22;18508;49.386;8.370;2022-09-03T11:53:26;24.70;64.40
31991;DHT22;18508;49.386;8.370;2022-09-03T11:55:59;25.20;50.80
31991;DHT22;18508;49.386;8.370;2022-09-03T11:58:29;25.00;44.10
31991;DHT22;18508;49.386;8.370;2022-09-03T12:01:03;25.60;36.00
31991;DHT22;18508;49.386;8.370;2022-09-03T12:03:40;25.50;34.10
31991;DHT22;18508;49.386;8.370;2022-09-03T12:06:45;24.70;40.50
31991;DHT22;18508;49.386;8.370;2022-09-03T12:12:29;23.90;61.20
31991;DHT22;18508;49.386;8.370;2022-09-03T12:15:04;24.10;62.50
31991;DHT22;18508;49.386;8.370;2022-09-03T12:17:38;24.60;57.10
31991;DHT22;18508;49.386;8.370;2022-09-03T12:20:12;24.80;47.00
31991;DHT22;18508;49.386;8.370;2022-09-03T12:22:42;25.00;46.70
31991;DHT22;18508;49.386;8.370;2022-09-03T12:25:12;24.90;44.80
31991;DHT22;18508;49.386;8.370;2022-09-03T12:27:43;24.80;52.60
31991;DHT22;18508;49.386;8.370;2022-09-03T12:30:15;24.50;52.60
31991;DHT22;18508;49.386;8.370;2022-09-03T12:32:44;24.40;53.60
31991;DHT22;18508;49.386;8.370;2022-09-03T12:35:14;24.30;54.90
31991;DHT22;18508;49.386;8.370;2022-09-03T12:38:05;24.40;52.60
31991;DHT22;18508;49.386;8.370;2022-09-03T12:40:41;24.70;54.00
31991;DHT22;18508;49.386;8.370;2022-09-03T12:43:30;24.70;49.30
31991;DHT22;18508;49.386;8.370;2022-09-03T12:46:13;24.90;47.70
31991;DHT22;18508;49.386;8.370;2022-09-03T12:48:51;25.10;47.60
31991;DHT22;18508;49.386;8.370;2022-09-03T12:51:42;25.40;45.40
31991;DHT22;18508;49.386;8.370;2022-09-03T12:54:19;25.30;44.20
31991;DHT22;18508;49.386;8.370;2022-09-03T12:56:52;24.80;42.10
31991;DHT22;18508;49.386;8.370;2022-09-03T12:59:23;25.00;41.00
31991;DHT22;18508;49.386;8.370;2022-09-03T13:01:55;25.20;46.20
31991;DHT22;18508;49.386;8.370;2022-09-03T13:04:27;25.80;39.20
31991;DHT22;18508;49.386;8.370;2022-09-03T13:07:00;26.10;40.50
31991;DHT22;18508;49.386;8.370;2022-09-03T13:09:34;26.00;32.50
31991;DHT22;18508;49.386;8.370;2022-09-03T13:12:05;26.30;28.70
31991;DHT22;18508;49.386;8.370;2022-09-03T13:14:41;26.40;25.80
31991;DHT22;18508;49.386;8.370;2022-09-03T13:17:34;26.70;25.40
31991;DHT22;18508;49.386;8.370;2022-09-03T13:20:34;26.40;28.00
31991;DHT22;18508;49.386;8.370;2022-09-03T13:23:17;26.10;24.40
31991;DHT22;18508;49.386;8.370;2022-09-03T13:25:56;25.90;25.70
31991;DHT22;18508;49.386;8.370;2022-09-03T13:28:40;26.30;26.50
31991;DHT22;18508;49.386;8.370;2022-09-03T13:31:23;26.50;24.40
31991;DHT22;18508;49.386;8.370;2022-09-03T13:33:56;26.70;24.40
31991;DHT22;18508;49.386;8.370;2022-09-03T13:36:33;26.60;23.60
31991;DHT22;18508;49.386;8.370;2022-09-03T13:39:09;26.50;22.80
31991;DHT22;18508;49.386;8.370;2022-09-03T13:41:45;26.20;23.20
31991;DHT22;18508;49.386;8.370;2022-09-03T13:44:19;26.00;26.60
31991;DHT22;18508;49.386;8.370;2022-09-03T13:46:52;25.90;24.60
31991;DHT22;18508;49.386;8.370;2022-09-03T13:49:33;26.40;25.70
31991;DHT22;18508;49.386;8.370;2022-09-03T13:52:26;26.50;21.40
31991;DHT22;18508;49.386;8.370;2022-09-03T13:55:02;26.80;23.20
31991;DHT22;18508;49.386;8.370;2022-09-03T13:57:38;26.90;20.50
31991;DHT22;18508;49.386;8.370;2022-09-03T14:00:23;26.40;21.10
31991;DHT22;18508;49.386;8.370;2022-09-03T14:03:02;26.70;21.20
31991;DHT22;18508;49.386;8.370;2022-09-03T14:05:46;26.80;19.30
31991;DHT22;18508;49.386;8.370;2022-09-03T14:08:22;26.70;20.10
31991;DHT22;18508;49.386;8.370;2022-09-03T14:11:01;26.60;19.80
31991;DHT22;18508;49.386;8.370;2022-09-03T14:13:43;26.50;21.40
31991;DHT22;18508;49.386;8.370;2022-09-03T14:16:23;26.00;24.00
31991;DHT22;18508;49.386;8.370;2022-09-03T14:18:57;26.30;21.10
31991;DHT22;18508;49.386;8.370;2022-09-03T14:21:32;26.00;23.40
31991;DHT22;18508;49.386;8.370;2022-09-03T14:24:08;25.90;27.60
31991;DHT22;18508;49.386;8.370;2022-09-03T14:26:49;26.10;26.10
31991;DHT22;18508;49.386;8.370;2022-09-03T14:29:23;26.40;23.20
31991;DHT22;18508;49.386;8.370;2022-09-03T14:32:12;26.30;25.00
31991;DHT22;18508;49.386;8.370;2022-09-03T14:34:54;25.90;23.80
31991;DHT22;18508;49.386;8.370;2022-09-03T14:37:47;25.90;26.10
31991;DHT22;18508;49.386;8.370;2022-09-03T14:40:23;25.50;28.20
31991;DHT22;18508;49.386;8.370;2022-09-03T14:43:05;25.40;29.40
31991;DHT22;18508;49.386;8.370;2022-09-03T14:48:55;25.20;36.50
31991;DHT22;18508;49.386;8.370;2022-09-03T14:51:40;24.50;57.50
31991;DHT22;18508;49.386;8.370;2022-09-03T14:54:26;24.30;62.20
31991;DHT22;18508;49.386;8.370;2022-09-03T14:57:05;24.10;74.10
31991;DHT22;18508;49.386;8.370;2022-09-03T15:00:06;23.90;99.90
31991;DHT22;18508;49.386;8.370;2022-09-03T15:06:09;23.20;99.90
31991;DHT22;18508;49.386;8.370;2022-09-03T15:08:52;22.50;99.90
31991;DHT22;18508;49.386;8.370;2022-09-03T15:11:27;22.10;99.90
31991;DHT22;18508;49.386;8.370;2022-09-03T15:14:04;21.70;99.90
31991;DHT22;18508;49.386;8.370;2022-09-03T15:16:48;21.50;99.90
31991;DHT22;18508;49.386;8.370;2022-09-03T15:20:00;21.30;99.90
31991;DHT22;18508;49.386;8.370;2022-09-03T15:22:40;21.10;99.90
31991;DHT22;18508;49.386;8.370;2022-09-03T15:25:20;20.90;99.90
31991;DHT22;18508;49.386;8.370;2022-09-03T15:28:06;20.90;99.90
31991;DHT22;18508;49.386;8.370;2022-09-03T15:30:44;20.70;99.90
31991;DHT22;18508;49.386;8.370;2022-09-03T15:33:22;20.70;99.90
31991;DHT22;18508;49.386;8.370;2022-09-03T15:36:05;20.60;99.90
31991;DHT22;18508;49.386;8.370;2022-09-03T15:38:48;20.50;99.90
31991;DHT22;18508;49.386;8.370;2022-09-03T15:41:27;20.40;99.90
31991;DHT22;18508;49.386;8.370;2022-09-03T15:43:59;20.30;99.90
31991;DHT22;18508;49.386;8.370;2022-09-03T15:46:36;20.20;99.90
31991;DHT22;18508;49.386;8.370;2022-09-03T15:49:07;20.30;99.90
31991;DHT22;18508;49.386;8.370;2022-09-03T15:51:46;20.30;99.90
31991;DHT22;18508;49.386;8.370;2022-09-03T15:54:31;20.10;99.90
31991;DHT22;18508;49.386;8.370;2022-09-03T15:57:05;20.10;99.90
31991;DHT22;18508;49.386;8.370;2022-09-03T15:59:40;20.20;99.90
31991;DHT22;18508;49.386;8.370;2022-09-03T16:02:14;20.20;99.90
31991;DHT22;18508;49.386;8.370;2022-09-03T16:04:53;20.10;99.90
31991;DHT22;18508;49.386;8.370;2022-09-03T16:07:25;20.20;99.90
31991;DHT22;18508;49.386;8.370;2022-09-03T16:10:06;20.10;99.90
31991;DHT22;18508;49.386;8.370;2022-09-03T16:12:58;20.20;99.90
31991;DHT22;18508;49.386;8.370;2022-09-03T16:15:29;20.10;99.90
31991;DHT22;18508;49.386;8.370;2022-09-03T16:18:05;20.00;99.90
31991;DHT22;18508;49.386;8.370;2022-09-03T16:20:42;20.10;99.90
31991;DHT22;18508;49.386;8.370;2022-09-03T16:23:15;20.20;99.90
31991;DHT22;18508;49.386;8.370;2022-09-03T16:25:51;20.10;99.90
31991;DHT22;18508;49.386;8.370;2022-09-03T16:28:27;20.10;99.90
31991;DHT22;18508;49.386;8.370;2022-09-03T16:31:06;20.10;99.90
31991;DHT22;18508;49.386;8.370;2022-09-03T16:33:45;20.20;99.90
31991;DHT22;18508;49.386;8.370;2022-09-03T16:36:27;20.20;99.90
31991;DHT22;18508;49.386;8.370;2022-09-03T16:39:02;20.10;99.90
31991;DHT22;18508;49.386;8.370;2022-09-03T16:41:45;20.20;99.90
31991;DHT22;18508;49.386;8.370;2022-09-03T16:44:18;20.20;99.90
31991;DHT22;18508;49.386;8.370;2022-09-03T16:46:53;20.20;99.90